Time;durP1;ratioP1;P1;durP2;ratioP2;P2;SDS_P1;SDS_P2;PMS_P1;PMS_P2;Temp;Humidity;BMP_temperature;BMP_pressure;BME280_temperature;BME280_humidity;BME280_pressure;Samples;Min_cycle;Max_cycle;Signal;HPM_P1;HPM_P2
2021/10/26 00:00:33;;;;;;;11.47;10.17;;;12.90;99.90;;;;;;5017962;28;20647;-71
2021/10/26 00:02:58;;;;;;;16.43;10.40;;;12.90;99.90;;;;;;5001117;28;20702;-70
2021/10/26 00:05:29;;;;;;;13.07;11.23;;;12.90;99.90;;;;;;5023282;28;20740;-70
2021/10/26 00:07:55;;;;;;;12.03;10.93;;;12.90;99.90;;;;;;5023796;28;20260;-71
2021/10/26 00:10:21;;;;;;;12.47;11.30;;;12.90;99.90;;;;;;5020769;28;20678;-70
2021/10/26 00:12:49;;;;;;;13.80;12.30;;;12.90;99.90;;;;;;5023963;28;21222;-70
2021/10/26 00:15:20;;;;;;;13.77;12.40;;;12.90;99.90;;;;;;5024028;28;20258;-71
2021/10/26 00:17:48;;;;;;;13.93;12.57;;;12.80;99.90;;;;;;5024867;28;20650;-69
2021/10/26 00:20:16;;;;;;;15.40;12.67;;;12.80;99.90;;;;;;5021955;28;21085;-70
2021/10/26 00:22:44;;;;;;;15.27;13.40;;;12.80;99.90;;;;;;5024136;28;20697;-70
2021/10/26 00:25:17;;;;;;;15.27;13.77;;;12.80;99.90;;;;;;5023296;28;21214;-70
2021/10/26 00:27:43;;;;;;;16.00;14.40;;;12.80;99.90;;;;;;5025399;28;20599;-69
2021/10/26 00:30:09;;;;;;;15.30;13.70;;;12.70;99.90;;;;;;5010053;28;20688;-69
2021/10/26 00:32:45;;;;;;;16.57;14.93;;;12.70;99.90;;;;;;5023199;28;20216;-69
2021/10/26 00:35:11;;;;;;;16.00;14.50;;;12.70;99.90;;;;;;5021980;28;21227;-70
2021/10/26 00:37:37;;;;;;;17.07;14.00;;;12.70;99.90;;;;;;5014783;28;20972;-70
2021/10/26 00:40:07;;;;;;;19.17;15.67;;;12.60;99.90;;;;;;5023766;28;20762;-70
2021/10/26 00:42:33;;;;;;;17.50;15.70;;;12.60;99.90;;;;;;5017502;28;21046;-70
2021/10/26 00:44:59;;;;;;;17.47;15.67;;;12.60;99.90;;;;;;5020775;28;20623;-70
2021/10/26 00:47:25;;;;;;;17.50;15.30;;;12.50;99.90;;;;;;5021234;28;20201;-70
2021/10/26 00:49:53;;;;;;;17.27;15.57;;;12.50;99.90;;;;;;5013630;28;20633;-70
2021/10/26 00:52:19;;;;;;;18.93;17.00;;;12.50;99.90;;;;;;5021174;28;20228;-68
2021/10/26 00:54:52;;;;;;;20.00;17.43;;;12.50;99.90;;;;;;5018812;28;20620;-69
2021/10/26 00:57:22;;;;;;;20.80;17.70;;;12.40;99.90;;;;;;5022107;28;21161;-70
2021/10/26 00:59:50;;;;;;;19.57;17.47;;;12.40;99.90;;;;;;5022921;28;20931;-70
2021/10/26 01:02:18;;;;;;;20.57;18.17;;;12.40;99.90;;;;;;5003914;28;21021;-70
2021/10/26 01:04:44;;;;;;;19.70;17.60;;;12.40;99.90;;;;;;5013610;28;20628;-69
2021/10/26 01:07:13;;;;;;;21.47;18.83;;;12.40;99.90;;;;;;5018521;28;20696;-69
2021/10/26 01:09:39;;;;;;;21.00;18.60;;;12.40;99.90;;;;;;5021802;28;20208;-69
2021/10/26 01:12:07;;;;;;;20.50;18.40;;;12.10;99.90;;;;;;5020517;28;20673;-69
2021/10/26 01:14:35;;;;;;;21.07;18.90;;;12.40;99.90;;;;;;5020914;28;20621;-69
2021/10/26 01:17:14;;;;;;;20.40;18.30;;;12.40;99.90;;;;;;5024810;28;20624;-69
2021/10/26 01:19:49;;;;;;;20.67;18.40;;;12.50;99.90;;;;;;5022528;28;21232;-69
2021/10/26 01:22:21;;;;;;;21.63;19.40;;;12.40;99.90;;;;;;5023504;28;21241;-69
2021/10/26 01:24:47;;;;;;;22.33;19.93;;;12.40;99.90;;;;;;5009266;28;20641;-69
2021/10/26 01:27:16;;;;;;;21.57;19.37;;;12.40;99.90;;;;;;5028269;28;20639;-71
2021/10/26 01:29:47;;;;;;;22.03;19.73;;;12.40;99.90;;;;;;5007014;28;20658;-70
2021/10/26 01:32:16;;;;;;;24.50;19.63;;;12.40;99.90;;;;;;5023418;28;20661;-70
2021/10/26 01:34:46;;;;;;;22.47;19.33;;;12.40;99.90;;;;;;5027186;28;20618;-71
2021/10/26 01:37:17;;;;;;;21.63;19.30;;;12.30;99.90;;;;;;5025267;28;20842;-71
2021/10/26 01:39:43;;;;;;;20.93;18.70;;;12.30;99.90;;;;;;5027777;28;20905;-71
2021/10/26 01:42:12;;;;;;;22.30;19.97;;;12.30;99.90;;;;;;5025899;28;20805;-70
2021/10/26 01:44:38;;;;;;;22.30;19.20;;;12.30;99.90;;;;;;5025221;28;20319;-71
2021/10/26 01:47:04;;;;;;;21.70;19.50;;;12.30;99.90;;;;;;5027211;28;20617;-70
2021/10/26 01:49:32;;;;;;;20.83;18.73;;;12.30;99.90;;;;;;5024937;28;20666;-70
2021/10/26 01:52:00;;;;;;;20.93;18.70;;;12.30;99.90;;;;;;5005774;28;20725;-70
2021/10/26 01:54:26;;;;;;;23.60;19.77;;;12.30;99.90;;;;;;5024667;28;20654;-70
2021/10/26 01:56:56;;;;;;;24.10;21.00;;;12.30;99.90;;;;;;5025878;28;20639;-70
2021/10/26 01:59:24;;;;;;;22.03;18.97;;;12.30;99.90;;;;;;5019141;28;20188;-70
2021/10/26 02:01:52;;;;;;;22.33;19.93;;;12.30;99.90;;;;;;5025466;28;21087;-70
2021/10/26 02:04:18;;;;;;;21.77;18.63;;;12.30;99.90;;;;;;5025780;28;20579;-70
2021/10/26 02:06:46;;;;;;;21.53;19.10;;;12.30;99.90;;;;;;5027464;28;21051;-70
2021/10/26 02:09:11;;;;;;;22.87;20.33;;;12.30;99.90;;;;;;5027263;28;20693;-70
2021/10/26 02:11:42;;;;;;;21.13;18.90;;;12.30;99.90;;;;;;5026771;28;20763;-70
2021/10/26 02:14:15;;;;;;;20.90;18.83;;;12.30;99.90;;;;;;5027987;28;20188;-70
2021/10/26 02:16:45;;;;;;;21.33;18.47;;;12.30;99.90;;;;;;5026549;28;21137;-69
2021/10/26 02:19:11;;;;;;;21.63;19.40;;;12.30;99.90;;;;;;5017280;28;20693;-70
2021/10/26 02:21:37;;;;;;;25.70;19.23;;;12.30;99.90;;;;;;5012865;28;20647;-70
2021/10/26 02:24:07;;;;;;;21.47;18.93;;;12.30;99.90;;;;;;5028007;28;20185;-70
2021/10/26 02:26:34;;;;;;;21.10;18.60;;;12.30;99.90;;;;;;5026003;28;20334;-70
2021/10/26 02:29:03;;;;;;;22.97;20.53;;;12.20;99.90;;;;;;5015531;28;21036;-70
2021/10/26 02:31:28;;;;;;;22.63;19.80;;;12.20;99.90;;;;;;5022714;28;21255;-70
2021/10/26 02:33:54;;;;;;;21.77;18.90;;;12.20;99.90;;;;;;5009138;28;20600;-68
2021/10/26 02:36:20;;;;;;;20.30;17.67;;;12.20;99.90;;;;;;5026184;28;20550;-68
2021/10/26 02:38:50;;;;;;;21.23;19.03;;;12.20;99.90;;;;;;5008497;28;20193;-68
2021/10/26 02:41:17;;;;;;;23.17;19.17;;;12.20;99.90;;;;;;5025977;28;20301;-68
2021/10/26 02:43:45;;;;;;;21.70;18.37;;;12.20;99.90;;;;;;5024471;28;21256;-69
2021/10/26 02:46:12;;;;;;;25.57;20.80;;;12.20;99.90;;;;;;5024855;28;20635;-69
2021/10/26 02:48:47;;;;;;;24.30;19.30;;;12.20;99.90;;;;;;5008993;28;20655;-69
2021/10/26 02:51:44;;;;;;;23.90;19.93;;;12.20;99.90;;;;;;5007445;28;20784;-69
2021/10/26 02:54:10;;;;;;;22.60;20.20;;;12.20;99.90;;;;;;5026401;28;20993;-69
2021/10/26 02:56:38;;;;;;;24.53;20.70;;;12.20;99.90;;;;;;5009129;28;20599;-69
2021/10/26 02:59:04;;;;;;;24.50;21.00;;;12.20;99.90;;;;;;5026307;28;20611;-69
2021/10/26 03:01:31;;;;;;;26.07;21.80;;;12.20;99.90;;;;;;5025739;28;20639;-69
2021/10/26 03:03:57;;;;;;;26.53;21.67;;;12.10;99.90;;;;;;5025665;28;20258;-69
2021/10/26 03:06:26;;;;;;;23.87;20.00;;;12.10;99.90;;;;;;5027436;28;20715;-69
2021/10/26 03:08:51;;;;;;;27.80;22.80;;;12.10;99.90;;;;;;5026065;28;20208;-69
2021/10/26 03:11:19;;;;;;;25.73;20.87;;;12.10;99.90;;;;;;5007286;28;20647;-69
2021/10/26 03:13:57;;;;;;;27.60;21.77;;;12.10;99.90;;;;;;5026698;28;20185;-69
2021/10/26 03:16:28;;;;;;;24.83;20.80;;;12.10;99.90;;;;;;5017227;28;20586;-69
2021/10/26 03:18:53;;;;;;;27.43;22.50;;;12.10;99.90;;;;;;5021204;28;20652;-69
2021/10/26 03:21:19;;;;;;;25.17;21.47;;;12.00;99.90;;;;;;5021165;28;20992;-69
2021/10/26 03:23:52;;;;;;;30.20;23.10;;;12.00;99.90;;;;;;5023023;28;20220;-69
2021/10/26 03:26:18;;;;;;;27.90;23.07;;;12.00;99.90;;;;;;5026290;28;20207;-70
2021/10/26 03:29:04;;;;;;;28.37;23.30;;;12.00;99.90;;;;;;5023866;28;21165;-68
2021/10/26 03:31:30;;;;;;;29.37;24.07;;;12.00;99.90;;;;;;5004945;28;20631;-69
2021/10/26 03:33:55;;;;;;;30.60;22.80;;;11.90;99.90;;;;;;5008066;28;20618;-68
2021/10/26 03:36:21;;;;;;;26.60;21.57;;;11.90;99.90;;;;;;5025244;28;20247;-69
2021/10/26 03:38:49;;;;;;;26.97;21.77;;;11.90;99.90;;;;;;5025646;28;20299;-68
2021/10/26 03:41:15;;;;;;;25.03;21.17;;;11.90;99.90;;;;;;5024396;28;20271;-68
2021/10/26 03:43:40;;;;;;;28.57;23.10;;;11.90;99.90;;;;;;5020517;28;20670;-68
2021/10/26 03:46:08;;;;;;;25.80;21.33;;;11.90;99.90;;;;;;5024306;28;20563;-70
2021/10/26 03:48:38;;;;;;;26.37;22.27;;;11.90;99.90;;;;;;5026660;28;20506;-69
2021/10/26 03:51:08;;;;;;;26.53;21.73;;;11.90;99.90;;;;;;5024736;28;20727;-69
2021/10/26 03:53:37;;;;;;;25.63;21.63;;;11.80;99.90;;;;;;5024235;28;20646;-69
2021/10/26 03:56:07;;;;;;;25.90;20.80;;;11.80;99.90;;;;;;5026358;28;20607;-69
2021/10/26 03:58:39;;;;;;;28.97;21.57;;;11.90;99.90;;;;;;5024686;28;20618;-69
2021/10/26 04:01:07;;;;;;;29.63;22.67;;;11.90;99.90;;;;;;5022312;28;20655;-69
2021/10/26 04:03:33;;;;;;;28.67;24.00;;;11.80;99.90;;;;;;5024659;28;21028;-70
2021/10/26 04:06:06;;;;;;;29.43;24.00;;;11.80;99.90;;;;;;5024302;28;20751;-69
2021/10/26 04:08:46;;;;;;;27.57;21.50;;;11.80;99.90;;;;;;5024439;28;21049;-69
2021/10/26 04:11:25;;;;;;;26.80;21.77;;;11.70;99.90;;;;;;5024055;28;21214;-68
2021/10/26 04:13:54;;;;;;;24.70;21.63;;;11.70;99.90;;;;;;5024210;28;20611;-68
2021/10/26 04:16:21;;;;;;;27.77;21.80;;;11.70;99.90;;;;;;5024094;28;20678;-70
2021/10/26 04:18:53;;;;;;;25.83;20.70;;;11.70;99.90;;;;;;5024800;28;20619;-69
2021/10/26 04:21:24;;;;;;;24.13;20.23;;;11.70;99.90;;;;;;5023242;28;20686;-68
2021/10/26 04:23:50;;;;;;;28.23;22.47;;;11.70;99.90;;;;;;5021256;28;20739;-68
2021/10/26 04:26:18;;;;;;;25.33;21.57;;;11.70;99.90;;;;;;5022685;28;20663;-68
2021/10/26 04:28:44;;;;;;;28.23;23.97;;;11.70;99.90;;;;;;5023724;28;20662;-71
2021/10/26 04:31:18;;;;;;;26.50;22.80;;;11.70;99.90;;;;;;5008112;28;21179;-69
2021/10/26 04:33:46;;;;;;;25.23;21.20;;;11.70;99.90;;;;;;5020606;28;20537;-68
2021/10/26 04:36:11;;;;;;;28.70;22.63;;;11.70;99.90;;;;;;5023184;28;20599;-69
2021/10/26 04:38:40;;;;;;;26.27;21.77;;;11.70;99.90;;;;;;5023821;28;20619;-68
2021/10/26 04:41:11;;;;;;;28.57;22.67;;;11.70;99.90;;;;;;5022252;28;20290;-69
2021/10/26 04:43:39;;;;;;;27.83;22.53;;;11.80;99.90;;;;;;5023721;28;20678;-69
2021/10/26 04:46:04;;;;;;;29.50;22.20;;;11.80;99.90;;;;;;5022018;28;20602;-69
2021/10/26 04:48:30;;;;;;;31.43;23.10;;;11.80;99.90;;;;;;5015392;28;20647;-70
2021/10/26 04:50:58;;;;;;;28.23;22.47;;;11.80;99.90;;;;;;5020823;28;20695;-69
2021/10/26 04:53:24;;;;;;;28.97;21.77;;;11.80;99.90;;;;;;5024279;28;20764;-68
2021/10/26 04:55:50;;;;;;;27.47;22.53;;;11.90;99.90;;;;;;5023360;28;20903;-68
2021/10/26 04:58:18;;;;;;;34.03;23.57;;;11.90;99.90;;;;;;5025763;28;20999;-69
2021/10/26 05:00:52;;;;;;;28.77;23.20;;;11.90;99.90;;;;;;5023685;28;20315;-70
2021/10/26 05:03:20;;;;;;;29.30;23.50;;;11.90;99.90;;;;;;5023223;28;20970;-70
2021/10/26 05:05:46;;;;;;;30.63;23.17;;;11.90;99.90;;;;;;5026184;28;20661;-71
2021/10/26 05:08:14;;;;;;;29.40;22.90;;;11.90;99.90;;;;;;5020243;28;21050;-70
2021/10/26 05:10:48;;;;;;;29.17;22.30;;;11.90;99.90;;;;;;5014402;28;20387;-70
2021/10/26 05:13:13;;;;;;;30.47;23.23;;;11.90;99.90;;;;;;5025868;28;20722;-68
2021/10/26 05:15:39;;;;;;;30.43;22.37;;;11.90;99.90;;;;;;5025633;28;20754;-68
2021/10/26 05:18:15;;;;;;;31.90;23.63;;;11.90;99.90;;;;;;5028121;28;20229;-68
2021/10/26 05:20:45;;;;;;;27.93;23.33;;;11.90;99.90;;;;;;5025236;28;20219;-67
2021/10/26 05:23:15;;;;;;;28.13;22.40;;;11.90;99.90;;;;;;5026154;28;20995;-70
2021/10/26 05:25:44;;;;;;;28.23;22.27;;;11.90;99.90;;;;;;5023358;28;23257;-68
2021/10/26 05:28:11;;;;;;;28.40;23.00;;;12.00;99.90;;;;;;5021556;28;21007;-70
2021/10/26 05:30:45;;;;;;;31.53;23.60;;;12.00;99.90;;;;;;5023417;28;21025;-70
2021/10/26 05:33:14;;;;;;;28.00;23.10;;;12.00;99.90;;;;;;5018702;28;20794;-69
2021/10/26 05:35:42;;;;;;;26.60;21.20;;;11.90;99.90;;;;;;5030145;28;21005;-70
2021/10/26 05:38:10;;;;;;;30.60;22.80;;;11.90;99.90;;;;;;5027227;28;20646;-70
2021/10/26 05:40:40;;;;;;;28.73;21.80;;;11.90;99.90;;;;;;5025859;28;20758;-69
2021/10/26 05:43:08;;;;;;;28.70;22.67;;;11.90;99.90;;;;;;5030194;28;20625;-68
2021/10/26 05:45:39;;;;;;;28.67;22.63;;;11.90;99.90;;;;;;5030646;28;20941;-69
2021/10/26 05:48:16;;;;;;;29.67;22.30;;;11.90;99.90;;;;;;5027546;28;20642;-70
2021/10/26 05:50:43;;;;;;;28.60;22.33;;;11.90;99.90;;;;;;5025691;28;20627;-68
2021/10/26 05:53:16;;;;;;;32.33;24.93;;;11.90;99.90;;;;;;5027758;28;20627;-68
2021/10/26 05:55:45;;;;;;;28.27;23.90;;;11.90;99.90;;;;;;5027737;28;20699;-69
2021/10/26 05:58:13;;;;;;;32.10;23.80;;;11.90;99.90;;;;;;5029914;28;20583;-68
2021/10/26 06:00:46;;;;;;;31.17;24.73;;;11.90;99.90;;;;;;5028392;28;20669;-68
2021/10/26 06:03:15;;;;;;;33.37;25.47;;;11.90;99.90;;;;;;5028817;28;20693;-67
2021/10/26 06:05:46;;;;;;;33.80;25.17;;;11.90;99.90;;;;;;5029552;28;20630;-68
2021/10/26 06:08:21;;;;;;;29.83;23.47;;;11.90;99.90;;;;;;5031765;28;21168;-68
2021/10/26 06:10:52;;;;;;;32.57;24.07;;;11.90;99.90;;;;;;5031203;28;20646;-68
2021/10/26 06:13:24;;;;;;;33.10;24.43;;;11.90;99.90;;;;;;5031908;28;20613;-68
2021/10/26 06:15:50;;;;;;;33.37;25.10;;;11.90;99.90;;;;;;5030103;28;20626;-68
2021/10/26 06:18:20;;;;;;;29.63;23.73;;;11.90;99.90;;;;;;5030757;28;21234;-68
2021/10/26 06:20:51;;;;;;;33.03;25.30;;;11.90;99.90;;;;;;5030404;28;21232;-68
2021/10/26 06:23:17;;;;;;;31.57;22.80;;;11.90;99.90;;;;;;5030577;28;21016;-68
2021/10/26 06:25:43;;;;;;;34.90;24.70;;;12.00;99.90;;;;;;5027502;28;20618;-67
2021/10/26 06:28:19;;;;;;;30.33;23.63;;;12.00;99.90;;;;;;5030211;28;21124;-68
2021/10/26 06:30:47;;;;;;;32.30;24.13;;;12.00;99.90;;;;;;5028253;28;20800;-68
2021/10/26 06:33:13;;;;;;;36.00;24.90;;;12.00;99.90;;;;;;5030742;28;20643;-68
2021/10/26 06:35:39;;;;;;;30.60;24.10;;;12.10;99.90;;;;;;5031713;28;20593;-70
2021/10/26 06:38:06;;;;;;;30.80;24.00;;;12.10;99.90;;;;;;5029155;28;20276;-70
2021/10/26 06:40:34;;;;;;;31.40;24.17;;;12.10;99.90;;;;;;5029858;28;20311;-69
2021/10/26 06:43:05;;;;;;;32.47;24.50;;;12.10;99.90;;;;;;5030527;28;20638;-69
2021/10/26 06:45:41;;;;;;;31.57;25.57;;;12.10;99.90;;;;;;5031195;28;20590;-71
2021/10/26 06:48:06;;;;;;;36.10;26.67;;;12.10;99.90;;;;;;5030842;28;21166;-68
2021/10/26 06:50:35;;;;;;;31.20;25.37;;;12.10;99.90;;;;;;5011641;28;20627;-69
2021/10/26 06:53:00;;;;;;;35.80;24.47;;;12.10;99.90;;;;;;5030610;28;20228;-69
2021/10/26 06:55:26;;;;;;;39.10;26.90;;;12.10;99.90;;;;;;5028894;28;20627;-68
2021/10/26 06:57:56;;;;;;;33.87;26.03;;;12.20;99.90;;;;;;5031435;28;20188;-70
2021/10/26 07:00:24;;;;;;;36.20;25.57;;;12.10;99.90;;;;;;5028591;28;20216;-70
2021/10/26 07:02:55;;;;;;;33.40;25.80;;;12.20;99.90;;;;;;5028874;28;21270;-70
2021/10/26 07:05:24;;;;;;;35.30;25.63;;;12.20;99.90;;;;;;5029788;28;20996;-68
2021/10/26 07:07:53;;;;;;;34.17;25.37;;;12.20;99.90;;;;;;5029121;28;21186;-68
2021/10/26 07:10:23;;;;;;;32.47;24.30;;;12.20;99.90;;;;;;5029099;28;20630;-69
2021/10/26 07:12:54;;;;;;;31.00;24.10;;;12.20;99.90;;;;;;5029123;28;20661;-68
2021/10/26 07:15:28;;;;;;;33.53;25.53;;;12.30;99.90;;;;;;5030034;28;20575;-68
2021/10/26 07:17:56;;;;;;;37.40;25.30;;;12.30;99.90;;;;;;5029835;28;20617;-68
2021/10/26 07:20:22;;;;;;;30.70;24.10;;;12.30;99.90;;;;;;5026845;28;21209;-71
2021/10/26 07:22:55;;;;;;;34.20;24.83;;;12.30;99.90;;;;;;5029746;28;20615;-68
2021/10/26 07:25:24;;;;;;;34.80;25.77;;;12.30;99.90;;;;;;5030288;28;20559;-69
2021/10/26 07:27:53;;;;;;;31.77;24.40;;;12.40;99.90;;;;;;5018480;28;20714;-69
2021/10/26 07:30:21;;;;;;;33.77;24.87;;;12.40;99.90;;;;;;5027591;28;20617;-71
2021/10/26 07:32:57;;;;;;;32.60;24.17;;;12.40;99.90;;;;;;5029723;28;20714;-71
2021/10/26 07:35:30;;;;;;;32.47;25.30;;;12.50;99.90;;;;;;5028218;28;21245;-72
2021/10/26 07:37:58;;;;;;;32.60;24.60;;;12.40;99.90;;;;;;5011603;28;21194;-71
2021/10/26 07:40:24;;;;;;;30.20;22.43;;;12.50;99.90;;;;;;5028316;28;20921;-71
2021/10/26 07:42:57;;;;;;;29.90;23.77;;;12.50;99.90;;;;;;5027981;28;20643;-72
2021/10/26 07:45:25;;;;;;;31.57;24.07;;;12.50;99.90;;;;;;5021714;28;20571;-72
2021/10/26 07:47:53;;;;;;;32.70;25.27;;;12.50;99.90;;;;;;5027792;28;20600;-71
2021/10/26 07:50:24;;;;;;;30.73;23.70;;;12.50;99.90;;;;;;5027229;28;20627;-71
2021/10/26 07:52:50;;;;;;;32.40;23.97;;;12.50;99.90;;;;;;5025931;28;20742;-71
2021/10/26 07:55:16;;;;;;;30.60;25.10;;;12.50;99.90;;;;;;5029869;28;20718;-70
2021/10/26 07:57:41;;;;;;;36.73;26.27;;;12.60;99.90;;;;;;5030353;28;20592;-71
2021/10/26 08:00:11;;;;;;;32.50;24.83;;;12.50;99.90;;;;;;5028325;28;20603;-70
2021/10/26 08:02:50;;;;;;;29.23;23.87;;;12.60;99.90;;;;;;5028375;28;20223;-70
2021/10/26 08:05:15;;;;;;;29.13;23.60;;;12.60;99.90;;;;;;5030289;28;20646;-70
2021/10/26 08:07:48;;;;;;;31.33;23.63;;;12.60;99.90;;;;;;5029762;28;20619;-70
2021/10/26 08:10:14;;;;;;;32.80;23.30;;;12.70;99.90;;;;;;5029134;28;20352;-70
2021/10/26 08:12:42;;;;;;;29.97;23.20;;;12.70;99.90;;;;;;5028257;28;21170;-70
2021/10/26 08:15:08;;;;;;;31.87;24.23;;;12.70;99.90;;;;;;5027877;28;20694;-70
2021/10/26 08:17:36;;;;;;;28.13;22.47;;;12.80;99.90;;;;;;5029555;28;20614;-70
2021/10/26 08:20:09;;;;;;;30.60;23.00;;;12.70;99.90;;;;;;5027167;28;20583;-70
2021/10/26 08:22:38;;;;;;;26.20;21.23;;;12.80;99.90;;;;;;5029740;28;20626;-70
2021/10/26 08:25:12;;;;;;;29.73;22.77;;;12.80;99.90;;;;;;5028871;28;20682;-70
2021/10/26 08:27:38;;;;;;;29.63;23.20;;;12.80;99.90;;;;;;5024702;28;20588;-70
2021/10/26 08:30:12;;;;;;;28.47;21.60;;;12.80;99.90;;;;;;5028322;28;20643;-70
2021/10/26 08:32:57;;;;;;;25.53;19.73;;;12.90;99.90;;;;;;5029228;28;20203;-70
2021/10/26 08:35:30;;;;;;;30.00;21.80;;;12.90;99.90;;;;;;5028045;28;20662;-70
2021/10/26 08:38:03;;;;;;;24.77;21.07;;;12.90;99.90;;;;;;5029525;28;20598;-70
2021/10/26 08:40:32;;;;;;;27.53;21.70;;;12.90;99.90;;;;;;5027924;28;20697;-70
2021/10/26 08:43:05;;;;;;;26.27;20.27;;;13.00;99.90;;;;;;5024544;28;20962;-70
2021/10/26 08:45:38;;;;;;;23.60;20.37;;;13.00;99.90;;;;;;5028798;28;20606;-70
2021/10/26 08:48:06;;;;;;;23.53;19.00;;;13.10;99.90;;;;;;5028503;28;20599;-71
2021/10/26 08:50:35;;;;;;;24.60;19.23;;;13.10;99.90;;;;;;5026580;28;20689;-70
2021/10/26 08:53:13;;;;;;;24.43;19.20;;;13.20;99.90;;;;;;5004213;28;20627;-70
2021/10/26 08:55:39;;;;;;;26.27;20.00;;;13.20;99.90;;;;;;5029350;28;20568;-70
2021/10/26 08:58:06;;;;;;;23.13;19.40;;;13.30;99.90;;;;;;5028763;28;20641;-70
2021/10/26 09:00:33;;;;;;;24.50;19.37;;;13.40;99.90;;;;;;5017926;28;20621;-70
2021/10/26 09:03:02;;;;;;;23.87;18.47;;;13.30;99.90;;;;;;5028136;28;21012;-70
2021/10/26 09:05:31;;;;;;;24.60;19.40;;;13.30;99.90;;;;;;5027154;28;20596;-70
2021/10/26 09:08:06;;;;;;;23.20;18.40;;;13.30;99.90;;;;;;5026684;28;20620;-70
2021/10/26 09:10:34;;;;;;;24.33;18.53;;;13.30;99.90;;;;;;5027196;28;21016;-71
2021/10/26 09:18:50;;;;;;;22.23;17.60;;;13.30;99.90;;;;;;5028206;28;20690;-70
2021/10/26 09:21:30;;;;;;;20.73;16.97;;;13.40;99.90;;;;;;5027602;28;21194;-70
2021/10/26 09:23:58;;;;;;;23.33;18.00;;;13.50;99.90;;;;;;5026954;28;20603;-70
2021/10/26 09:26:26;;;;;;;19.10;16.80;;;13.50;99.90;;;;;;5027786;28;20615;-70
2021/10/26 09:28:59;;;;;;;20.00;15.20;;;13.50;99.90;;;;;;5025424;28;20678;-70
2021/10/26 09:31:27;;;;;;;22.30;16.00;;;13.60;99.90;;;;;;5018857;28;20615;-70
2021/10/26 09:34:16;;;;;;;19.67;14.87;;;13.60;99.90;;;;;;5026706;28;21155;-70
2021/10/26 09:36:45;;;;;;;19.27;14.67;;;13.60;99.90;;;;;;5028192;28;20626;-70
2021/10/26 09:39:18;;;;;;;16.67;14.53;;;13.70;99.90;;;;;;5026858;28;20630;-70
2021/10/26 09:41:53;;;;;;;17.80;14.53;;;13.70;99.90;;;;;;5027497;28;21097;-70
2021/10/26 09:44:23;;;;;;;17.43;14.07;;;13.70;99.90;;;;;;5029608;28;20590;-70
2021/10/26 09:46:53;;;;;;;16.57;12.77;;;13.70;99.90;;;;;;5030208;28;20622;-70
2021/10/26 09:49:32;;;;;;;14.77;11.70;;;13.80;99.90;;;;;;5031560;28;20822;-71
2021/10/26 09:52:21;;;;;;;14.90;12.43;;;13.80;99.90;;;;;;5030344;28;20692;-70
2021/10/26 09:55:05;;;;;;;16.73;12.73;;;13.70;99.90;;;;;;5029894;28;21185;-71
2021/10/26 09:57:42;;;;;;;16.20;13.40;;;13.70;99.90;;;;;;5031378;28;20637;-72
2021/10/26 10:00:09;;;;;;;16.80;13.97;;;13.70;99.90;;;;;;5029738;28;20918;-70
2021/10/26 10:02:44;;;;;;;20.13;16.17;;;13.70;99.90;;;;;;5031051;28;20631;-70
2021/10/26 10:05:24;;;;;;;18.90;14.27;;;13.70;99.90;;;;;;5030663;28;21002;-70
2021/10/26 10:07:50;;;;;;;17.73;14.90;;;13.70;99.90;;;;;;5031419;28;20653;-70
2021/10/26 10:10:18;;;;;;;20.40;15.70;;;13.70;99.90;;;;;;5030785;28;21210;-71
2021/10/26 10:13:01;;;;;;;21.20;15.50;;;13.70;99.90;;;;;;5028636;28;20227;-70
2021/10/26 10:15:29;;;;;;;20.07;14.40;;;13.80;99.90;;;;;;5030698;28;20607;-70
2021/10/26 10:18:09;;;;;;;16.63;13.53;;;13.80;99.90;;;;;;5030488;28;21134;-71
2021/10/26 10:20:44;;;;;;;17.27;13.97;;;13.90;99.90;;;;;;5030090;28;20646;-70
2021/10/26 10:23:11;;;;;;;16.93;13.70;;;13.90;99.90;;;;;;5030987;28;20626;-70
2021/10/26 10:25:37;;;;;;;16.23;13.43;;;14.00;99.90;;;;;;5030136;28;20694;-70
2021/10/26 10:28:03;;;;;;;16.40;13.07;;;14.10;99.90;;;;;;5029292;28;20683;-70
2021/10/26 10:30:31;;;;;;;16.70;12.70;;;14.10;99.90;;;;;;5026569;28;20627;-70
2021/10/26 10:33:00;;;;;;;18.10;13.80;;;14.30;99.90;;;;;;5030132;28;20619;-70
2021/10/26 10:35:28;;;;;;;16.00;13.07;;;14.30;99.90;;;;;;5027239;28;20615;-70
2021/10/26 10:37:58;;;;;;;16.70;14.20;;;14.30;99.90;;;;;;5029433;28;20603;-70
2021/10/26 10:40:28;;;;;;;18.40;13.90;;;14.30;99.90;;;;;;5004015;28;20751;-70
2021/10/26 10:42:57;;;;;;;16.93;14.40;;;14.40;99.90;;;;;;5026632;28;20634;-70
2021/10/26 10:45:35;;;;;;;19.40;14.27;;;14.30;99.90;;;;;;5022766;28;20642;-70
2021/10/26 10:48:24;;;;;;;15.43;12.73;;;14.20;99.90;;;;;;5029094;28;20837;-70
2021/10/26 10:51:12;;;;;;;15.37;12.00;;;14.20;99.90;;;;;;5027660;28;20627;-71
2021/10/26 10:53:40;;;;;;;14.43;11.00;;;14.30;99.90;;;;;;5029639;28;20712;-70
2021/10/26 10:56:20;;;;;;;11.63;10.43;;;14.30;99.90;;;;;;5011432;28;20677;-71
2021/10/26 10:58:49;;;;;;;13.83;10.87;;;14.40;99.90;;;;;;5029963;28;20731;-70
2021/10/26 11:01:33;;;;;;;12.73;10.23;;;14.60;99.90;;;;;;5020046;28;20722;-70
2021/10/26 11:04:27;;;;;;;12.47;10.20;;;14.70;99.90;;;;;;5029519;28;20622;-70
2021/10/26 11:06:56;;;;;;;11.30;10.20;;;14.90;99.90;;;;;;5024758;28;20832;-70
2021/10/26 11:09:28;;;;;;;12.07;10.00;;;14.90;99.90;;;;;;5029049;28;20655;-71
2021/10/26 11:12:17;;;;;;;13.80;11.30;;;15.00;99.90;;;;;;5028803;28;21210;-70
2021/10/26 11:14:49;;;;;;;12.40;10.20;;;15.00;99.90;;;;;;5028636;28;20609;-70
2021/10/26 11:17:54;;;;;;;12.83;9.10;;;15.10;99.90;;;;;;5026980;28;20603;-70
2021/10/26 11:20:31;;;;;;;10.50;8.20;;;15.30;99.90;;;;;;4947316;28;20622;-71
2021/10/26 11:23:02;;;;;;;13.47;8.80;;;15.50;99.90;;;;;;5013537;28;20674;-70
2021/10/26 11:25:35;;;;;;;9.83;8.37;;;15.80;99.90;;;;;;5025057;28;21084;-70
2021/10/26 11:28:15;;;;;;;9.33;8.40;;;16.10;99.90;;;;;;5024594;28;21994;-69
2021/10/26 11:30:46;;;;;;;10.47;8.53;;;16.50;99.90;;;;;;5021754;28;20641;-69
2021/10/26 11:33:17;;;;;;;8.10;6.93;;;17.20;99.90;;;;;;5025422;28;20624;-69
2021/10/26 11:35:46;;;;;;;9.40;8.50;;;19.00;99.90;;;;;;5026707;28;20595;-70
2021/10/26 11:38:13;;;;;;;9.67;8.67;;;20.80;99.90;;;;;;5025060;28;20619;-69
2021/10/26 11:41:03;;;;;;;10.13;7.80;;;21.70;99.90;;;;;;5021399;28;20655;-70
2021/10/26 11:43:32;;;;;;;9.80;8.80;;;21.90;99.90;;;;;;5019724;28;20729;-70
2021/10/26 11:46:08;;;;;;;10.23;9.13;;;21.40;99.90;;;;;;5025301;28;21022;-70
2021/10/26 11:48:57;;;;;;;12.07;10.97;;;20.40;99.90;;;;;;5026734;28;20734;-70
2021/10/26 11:51:40;;;;;;;10.00;9.10;;;19.60;99.90;;;;;;5027627;28;20623;-71
2021/10/26 11:54:29;;;;;;;10.00;9.10;;;19.10;99.90;;;;;;5027280;28;20602;-70
2021/10/26 11:56:57;;;;;;;10.50;9.37;;;18.50;99.90;;;;;;5028401;28;20564;-70
2021/10/26 11:59:22;;;;;;;11.53;10.40;;;18.20;99.90;;;;;;5027802;28;20611;-70
2021/10/26 12:01:59;;;;;;;11.13;10.10;;;18.10;99.90;;;;;;5026150;28;20661;-70
2021/10/26 12:04:30;;;;;;;11.40;10.30;;;18.00;99.90;;;;;;5027851;28;20204;-70
2021/10/26 12:07:04;;;;;;;11.07;9.87;;;17.90;99.90;;;;;;5024927;28;21017;-70
2021/10/26 12:09:41;;;;;;;11.30;10.03;;;17.90;99.90;;;;;;5028411;28;20725;-70
2021/10/26 12:12:13;;;;;;;11.10;10.10;;;17.80;99.90;;;;;;5025070;28;20647;-70
2021/10/26 12:14:44;;;;;;;12.80;10.63;;;17.80;99.90;;;;;;5003421;28;20607;-70
2021/10/26 12:17:19;;;;;;;11.97;10.20;;;17.80;99.90;;;;;;5027134;28;20603;-70
2021/10/26 12:20:20;;;;;;;11.13;10.03;;;18.00;99.90;;;;;;5026500;28;20972;-70
2021/10/26 12:22:49;;;;;;;12.10;10.10;;;18.00;99.90;;;;;;5024877;28;20977;-70
2021/10/26 12:25:21;;;;;;;13.10;11.70;;;17.90;99.90;;;;;;5028355;28;20611;-70
2021/10/26 12:27:50;;;;;;;13.50;12.10;;;17.70;99.90;;;;;;5003007;28;20635;-70
2021/10/26 12:30:36;;;;;;;14.23;11.50;;;17.50;99.90;;;;;;5023439;28;20715;-70
2021/10/26 12:33:16;;;;;;;15.60;12.33;;;17.30;99.90;;;;;;5023028;28;20661;-70
2021/10/26 12:35:48;;;;;;;13.40;11.50;;;17.00;99.90;;;;;;5023014;28;20714;-70
2021/10/26 12:38:35;;;;;;;12.30;11.00;;;16.80;99.90;;;;;;5024975;28;20638;-70
2021/10/26 12:41:08;;;;;;;12.37;11.10;;;16.70;99.90;;;;;;5024036;28;20657;-69
2021/10/26 12:43:38;;;;;;;13.20;11.53;;;16.50;99.90;;;;;;5023963;28;20651;-69
2021/10/26 12:46:23;;;;;;;14.80;9.97;;;16.50;99.90;;;;;;5025755;28;20588;-69
2021/10/26 12:49:03;;;;;;;11.10;10.00;;;16.40;99.90;;;;;;5006836;28;20642;-69
2021/10/26 12:51:29;;;;;;;11.47;9.70;;;16.30;99.90;;;;;;5019579;28;20637;-70